Time;durP1;ratioP1;P1;durP2;ratioP2;P2;SDS_P1;SDS_P2;PMS_P1;PMS_P2;Temp;Humidity;BMP_temperature;BMP_pressure;BME280_temperature;BME280_humidity;BME280_pressure;Samples;Min_cycle;Max_cycle;Signal;HPM_P1;HPM_P2
2022/10/03 00:00:11;;;;;;;20.95;9.65;;;10.50;99.90;;;;;;5051605;28;20477;-64
2022/10/03 00:03:09;;;;;;;21.45;9.40;;;10.50;99.90;;;;;;5051334;28;20048;-66
2022/10/03 00:06:05;;;;;;;20.40;9.82;;;10.50;99.90;;;;;;5051333;28;20084;-66
2022/10/03 00:08:39;;;;;;;21.35;10.20;;;10.50;99.90;;;;;;5050875;28;20017;-65
2022/10/03 00:11:37;;;;;;;21.50;10.88;;;10.50;99.90;;;;;;5050251;28;20110;-66
2022/10/03 00:14:23;;;;;;;24.98;11.00;;;10.60;99.90;;;;;;5050872;28;20036;-66
2022/10/03 00:17:02;;;;;;;27.50;12.32;;;10.60;99.90;;;;;;5043385;28;20090;-65
2022/10/03 00:19:45;;;;;;;25.30;11.48;;;10.60;99.90;;;;;;5050673;28;20067;-65
2022/10/03 00:22:47;;;;;;;28.63;11.88;;;10.60;99.90;;;;;;5050140;28;20040;-66
2022/10/03 00:25:41;;;;;;;30.25;13.15;;;10.60;99.90;;;;;;5042196;28;20210;-65
2022/10/03 00:28:15;;;;;;;28.00;12.13;;;10.70;99.90;;;;;;5050128;28;20116;-65
2022/10/03 00:31:16;;;;;;;30.40;12.25;;;10.70;99.90;;;;;;5051003;28;20025;-66
2022/10/03 00:34:07;;;;;;;31.48;13.07;;;10.70;99.90;;;;;;5046168;28;20048;-65
2022/10/03 00:36:59;;;;;;;26.02;12.80;;;10.70;99.90;;;;;;5050516;28;20040;-66
2022/10/03 00:39:53;;;;;;;29.63;12.68;;;10.70;99.90;;;;;;5050702;28;20032;-65
2022/10/03 00:42:39;;;;;;;29.20;13.32;;;10.70;99.90;;;;;;5049890;28;20021;-65
2022/10/03 00:45:41;;;;;;;27.10;12.55;;;10.70;99.90;;;;;;5049519;28;20040;-65
2022/10/03 00:48:40;;;;;;;30.27;12.93;;;10.70;99.90;;;;;;5049751;28;20115;-66
2022/10/03 00:51:24;;;;;;;30.58;12.90;;;10.70;99.90;;;;;;5049660;28;20041;-65
2022/10/03 00:53:58;;;;;;;26.30;13.02;;;10.60;99.90;;;;;;5050540;28;20024;-65
2022/10/03 00:56:47;;;;;;;32.40;12.60;;;10.60;99.90;;;;;;5050541;28;20112;-65
2022/10/03 00:59:28;;;;;;;26.02;12.25;;;10.60;99.90;;;;;;5049305;28;20056;-66
2022/10/03 01:01:54;;;;;;;30.67;12.40;;;10.50;99.90;;;;;;5050149;28;20082;-71
2022/10/03 01:04:42;;;;;;;26.08;12.57;;;10.50;99.90;;;;;;5049357;28;20028;-65
2022/10/03 01:07:24;;;;;;;29.58;12.27;;;10.50;99.90;;;;;;5049406;28;20032;-66
2022/10/03 01:10:09;;;;;;;31.17;13.07;;;10.50;99.90;;;;;;5050156;28;20112;-66
2022/10/03 01:13:11;;;;;;;27.40;12.45;;;10.50;99.90;;;;;;5050403;28;20487;-65
2022/10/03 01:15:49;;;;;;;32.30;13.18;;;10.50;99.90;;;;;;5049698;28;20021;-64
2022/10/03 01:18:30;;;;;;;28.80;13.13;;;10.50;99.90;;;;;;5049197;28;20035;-66
2022/10/03 01:21:05;;;;;;;35.67;14.38;;;10.50;99.90;;;;;;5047979;28;20056;-70
2022/10/03 01:23:49;;;;;;;31.73;12.98;;;10.50;99.90;;;;;;5049813;28;20142;-65
2022/10/03 01:26:48;;;;;;;27.00;12.40;;;10.50;99.90;;;;;;5048608;28;20029;-65
2022/10/03 01:32:49;;;;;;;31.67;13.02;;;10.50;99.90;;;;;;5049606;28;20667;-65
2022/10/03 01:35:21;;;;;;;31.63;12.98;;;10.50;99.90;;;;;;5047657;28;20389;-65
2022/10/03 01:38:05;;;;;;;28.50;12.45;;;10.40;99.90;;;;;;5048550;28;20494;-65
2022/10/03 01:41:04;;;;;;;31.60;11.55;;;10.50;99.90;;;;;;5049729;28;20032;-66
2022/10/03 01:43:54;;;;;;;30.65;13.23;;;10.40;99.90;;;;;;5049662;28;20732;-65
2022/10/03 01:46:37;;;;;;;89.93;12.77;;;10.40;99.90;;;;;;5049062;28;20606;-65
2022/10/03 01:49:06;;;;;;;28.38;11.63;;;10.40;99.90;;;;;;5048345;28;20263;-65
2022/10/03 01:51:50;;;;;;;30.17;11.70;;;10.40;99.90;;;;;;5047940;28;20718;-66
2022/10/03 01:54:30;;;;;;;26.77;12.13;;;10.40;99.90;;;;;;5048461;28;20040;-66
2022/10/03 01:57:00;;;;;;;23.67;11.63;;;10.40;99.90;;;;;;5049440;28;20386;-64
2022/10/03 01:59:40;;;;;;;26.88;12.43;;;10.50;99.90;;;;;;5049101;28;20048;-66
2022/10/03 02:02:25;;;;;;;28.90;12.95;;;10.50;99.90;;;;;;5048726;28;20397;-66
2022/10/03 02:05:11;;;;;;;28.10;12.48;;;10.50;99.90;;;;;;5049350;28;20481;-65
2022/10/03 02:07:42;;;;;;;32.05;13.20;;;10.50;99.90;;;;;;5049358;28;20045;-65
2022/10/03 02:10:28;;;;;;;31.05;12.10;;;10.50;99.90;;;;;;5048545;28;20017;-66
2022/10/03 02:13:16;;;;;;;30.20;12.77;;;10.60;99.90;;;;;;5048479;28;20570;-65
2022/10/03 02:15:53;;;;;;;33.78;13.82;;;10.50;99.90;;;;;;5049261;28;20029;-66
2022/10/03 02:18:44;;;;;;;35.45;13.52;;;10.50;99.90;;;;;;5048105;28;20029;-65
2022/10/03 02:21:14;;;;;;;;;;;10.60;99.90;;;;;;5049172;28;20140;-63
2022/10/03 02:23:44;;;;;;;28.27;12.73;;;10.50;99.90;;;;;;5049272;28;19913;-64
2022/10/03 02:26:44;;;;;;;31.10;13.00;;;10.60;99.90;;;;;;5048506;28;20504;-66
2022/10/03 02:29:28;;;;;;;31.25;13.32;;;10.50;99.90;;;;;;5048529;28;20044;-65
2022/10/03 02:32:35;;;;;;;34.65;13.65;;;10.60;99.90;;;;;;5049016;28;20051;-66
2022/10/03 02:35:07;;;;;;;29.25;13.60;;;10.50;99.90;;;;;;5028757;28;20021;-70
2022/10/03 02:37:54;;;;;;;32.70;13.23;;;10.50;99.90;;;;;;5027873;28;20024;-63
2022/10/03 02:40:30;;;;;;;31.42;13.73;;;10.60;99.90;;;;;;5028750;28;20036;-65
2022/10/03 02:43:36;;;;;;;37.08;14.73;;;10.60;99.90;;;;;;5029545;28;20128;-66
2022/10/03 02:46:20;;;;;;;36.85;15.48;;;10.60;99.90;;;;;;5029222;28;20034;-69
2022/10/03 02:49:03;;;;;;;38.00;14.50;;;10.60;99.90;;;;;;5030863;28;20029;-65
2022/10/03 02:51:52;;;;;;;38.60;14.63;;;10.70;99.90;;;;;;5032790;28;20029;-65
2022/10/03 02:54:36;;;;;;;33.22;15.38;;;10.70;99.90;;;;;;5037988;28;20040;-65
2022/10/03 02:57:04;;;;;;;34.40;14.52;;;10.70;99.90;;;;;;5052557;28;20118;-68
2022/10/03 02:59:52;;;;;;;31.20;15.23;;;10.70;99.90;;;;;;5052856;28;20028;-65
2022/10/03 03:02:45;;;;;;;34.50;15.15;;;10.70;99.90;;;;;;5050603;28;20408;-65
2022/10/03 03:05:39;;;;;;;32.70;14.60;;;10.70;99.90;;;;;;5051738;28;20389;-65
2022/10/03 03:08:04;;;;;;;35.45;14.38;;;10.70;99.90;;;;;;5051982;28;20114;-69
2022/10/03 03:11:01;;;;;;;33.00;14.48;;;10.60;99.90;;;;;;5052282;28;20025;-65
2022/10/03 03:13:44;;;;;;;32.17;14.57;;;10.70;99.90;;;;;;5051904;28;20040;-68
2022/10/03 03:16:24;;;;;;;31.08;13.55;;;10.70;99.90;;;;;;5051525;28;20024;-65
2022/10/03 03:18:55;;;;;;;30.57;14.63;;;10.70;99.90;;;;;;5051839;28;20544;-66
2022/10/03 03:21:38;;;;;;;32.97;13.77;;;10.60;99.90;;;;;;5049909;28;20828;-66
2022/10/03 03:24:18;;;;;;;31.60;14.75;;;10.60;99.90;;;;;;5051606;28;20421;-70
2022/10/03 03:27:10;;;;;;;34.05;14.73;;;10.60;99.90;;;;;;5051929;28;20163;-65
2022/10/03 03:29:45;;;;;;;34.08;15.15;;;10.60;99.90;;;;;;5041335;28;20076;-65
2022/10/03 03:32:18;;;;;;;33.03;13.82;;;10.60;99.90;;;;;;5051527;28;20474;-65
2022/10/03 03:35:02;;;;;;;35.35;14.88;;;10.60;99.90;;;;;;5050693;28;20036;-68
2022/10/03 03:38:13;;;;;;;31.90;15.30;;;10.60;99.90;;;;;;5051107;28;20051;-65
2022/10/03 03:41:02;;;;;;;35.38;15.15;;;10.60;99.90;;;;;;5046104;28;20033;-65
2022/10/03 03:43:46;;;;;;;35.38;14.68;;;10.60;99.90;;;;;;5051053;28;20059;-64
2022/10/03 03:46:50;;;;;;;30.52;13.60;;;10.60;99.90;;;;;;5050940;28;20032;-65
2022/10/03 03:49:24;;;;;;;31.65;14.10;;;10.60;99.90;;;;;;5028071;28;20052;-65
2022/10/03 03:51:58;;;;;;;30.85;13.93;;;10.60;99.90;;;;;;5028710;28;20517;-65
2022/10/03 03:54:33;;;;;;;32.28;15.02;;;10.50;99.90;;;;;;5028137;28;20674;-65
2022/10/03 03:57:17;;;;;;;32.97;14.57;;;10.40;99.90;;;;;;5028959;28;20390;-64
2022/10/03 04:00:08;;;;;;;29.45;12.95;;;10.40;99.90;;;;;;5027984;28;20041;-66
2022/10/03 04:02:53;;;;;;;31.90;15.07;;;10.40;99.90;;;;;;5012124;28;20478;-66
2022/10/03 04:05:40;;;;;;;38.17;16.58;;;10.40;99.90;;;;;;5027996;28;20061;-64
2022/10/03 04:08:37;;;;;;;41.30;15.88;;;10.40;99.90;;;;;;5028162;28;20049;-69
2022/10/03 04:11:48;;;;;;;35.72;15.07;;;10.40;99.90;;;;;;5028983;28;20041;-65
2022/10/03 04:14:49;;;;;;;32.10;15.18;;;10.50;99.90;;;;;;4995784;28;20037;-65
2022/10/03 04:20:43;;;;;;;34.55;15.80;;;10.50;99.90;;;;;;5020355;28;20048;-65
2022/10/03 04:23:26;;;;;;;37.53;16.25;;;10.40;99.90;;;;;;5030579;28;20120;-70
2022/10/03 04:26:27;;;;;;;37.00;15.20;;;10.50;99.90;;;;;;5030913;28;20044;-67
2022/10/03 04:29:15;;;;;;;34.15;14.80;;;10.40;99.90;;;;;;5031368;28;20036;-65
2022/10/03 04:31:53;;;;;;;40.45;14.85;;;10.40;99.90;;;;;;5030989;28;20088;-66
2022/10/03 04:34:56;;;;;;;36.03;15.32;;;10.30;99.90;;;;;;5045417;28;20033;-65
2022/10/03 04:37:55;;;;;;;32.25;14.77;;;10.30;99.90;;;;;;5030082;28;20392;-67
2022/10/03 04:40:40;;;;;;;32.53;14.27;;;10.30;99.90;;;;;;5048334;28;20082;-64
2022/10/03 04:43:33;;;;;;;31.42;14.60;;;10.30;99.90;;;;;;5050619;28;20029;-65
2022/10/03 04:46:40;;;;;;;31.88;14.70;;;10.30;99.90;;;;;;5050646;28;20385;-65
2022/10/03 04:49:10;;;;;;;37.75;15.13;;;10.30;99.90;;;;;;5050428;28;20033;-64
2022/10/03 04:52:00;;;;;;;29.98;14.65;;;10.30;99.90;;;;;;5050398;28;20033;-67
2022/10/03 04:54:49;;;;;;;39.25;15.65;;;10.30;99.90;;;;;;5049652;28;20068;-66
2022/10/03 04:57:29;;;;;;;39.22;16.33;;;10.30;99.90;;;;;;5049699;28;20075;-64
2022/10/03 05:00:22;;;;;;;35.47;15.15;;;10.30;99.90;;;;;;5050157;28;20025;-66
2022/10/03 05:03:14;;;;;;;37.50;15.75;;;10.30;99.90;;;;;;5049900;28;20029;-65
2022/10/03 05:05:55;;;;;;;33.60;14.63;;;10.30;99.90;;;;;;5050313;28;20025;-65
2022/10/03 05:09:14;;;;;;;38.00;14.98;;;10.30;99.90;;;;;;5049748;28;20219;-65
2022/10/03 05:11:54;;;;;;;39.83;15.65;;;10.40;99.90;;;;;;5050597;28;20083;-64
2022/10/03 05:14:30;;;;;;;34.15;15.00;;;10.40;99.90;;;;;;5049419;28;20086;-67
2022/10/03 05:17:05;;;;;;;41.40;16.95;;;10.40;99.90;;;;;;5049992;28;20075;-66
2022/10/03 05:19:49;;;;;;;32.25;13.93;;;10.40;99.90;;;;;;5048882;28;20064;-66
2022/10/03 05:22:35;;;;;;;58.42;13.32;;;10.40;99.90;;;;;;5049211;28;20104;-66
2022/10/03 05:25:42;;;;;;;26.63;11.40;;;10.40;99.90;;;;;;5049968;28;20044;-66
2022/10/03 05:28:25;;;;;;;26.55;12.48;;;10.30;99.90;;;;;;5044397;28;20037;-65
2022/10/03 05:31:20;;;;;;;32.28;13.18;;;10.30;99.90;;;;;;5049508;28;20036;-66
2022/10/03 05:33:58;;;;;;;38.33;15.52;;;10.30;99.90;;;;;;5049321;28;20037;-65
2022/10/03 05:36:30;;;;;;;36.63;15.57;;;10.30;99.90;;;;;;5049015;28;20031;-66
2022/10/03 05:39:20;;;;;;;29.33;14.23;;;10.30;99.90;;;;;;5049817;28;20025;-65
2022/10/03 05:41:57;;;;;;;33.30;14.95;;;10.30;99.90;;;;;;5049757;28;20025;-66
2022/10/03 05:44:44;;;;;;;34.10;13.98;;;10.30;99.90;;;;;;5048632;28;20355;-66
2022/10/03 05:50:35;;;;;;;35.20;16.05;;;10.20;99.90;;;;;;5049455;28;20206;-65
2022/10/03 05:53:23;;;;;;;34.75;14.82;;;10.10;99.90;;;;;;5048971;28;20047;-66
2022/10/03 05:56:07;;;;;;;39.95;15.20;;;10.00;99.90;;;;;;5049499;28;20033;-65
2022/10/03 05:59:07;;;;;;;32.28;14.23;;;10.00;99.90;;;;;;5048725;28;20024;-66
2022/10/03 06:02:05;;;;;;;37.92;15.75;;;9.90;99.90;;;;;;5048216;28;20083;-65
2022/10/03 06:05:28;;;;;;;37.10;15.65;;;9.90;99.90;;;;;;5048381;28;20742;-66
2022/10/03 06:07:57;;;;;;;36.47;15.07;;;10.00;99.90;;;;;;5026707;28;20383;-67
2022/10/03 06:10:56;;;;;;;45.00;15.73;;;10.00;99.90;;;;;;5026033;28;20417;-64
2022/10/03 06:13:25;;;;;;;35.50;15.68;;;10.00;99.90;;;;;;5044772;28;20048;-65
2022/10/03 06:16:00;;;;;;;43.47;15.07;;;10.00;99.90;;;;;;5049368;28;20024;-66
2022/10/03 06:18:32;;;;;;;34.72;15.05;;;9.90;99.90;;;;;;5047223;28;20032;-66
2022/10/03 06:21:04;;;;;;;30.35;14.20;;;9.80;99.90;;;;;;5049132;28;20393;-64
2022/10/03 06:23:57;;;;;;;30.95;13.45;;;9.80;99.90;;;;;;5049417;28;20135;-65
2022/10/03 06:26:45;;;;;;;48.72;13.20;;;9.80;99.90;;;;;;5052178;28;20082;-66
2022/10/03 06:29:48;;;;;;;216.30;16.80;;;9.80;99.90;;;;;;5053279;28;20032;-65
2022/10/03 06:32:51;;;;;;;46.50;17.15;;;10.00;99.90;;;;;;5051652;28;20025;-70
2022/10/03 06:35:45;;;;;;;42.72;16.25;;;10.00;99.90;;;;;;5052540;28;20025;-69
2022/10/03 06:38:33;;;;;;;35.33;14.80;;;10.00;99.90;;;;;;5053074;28;20036;-66
2022/10/03 06:41:40;;;;;;;32.28;16.52;;;10.00;99.90;;;;;;5053007;28;20043;-65
2022/10/03 06:44:20;;;;;;;29.77;13.05;;;10.10;99.90;;;;;;5052896;28;20028;-66
2022/10/03 06:46:46;;;;;;;;;;;10.10;99.90;;;;;;5053668;28;20790;-66
2022/10/03 06:49:17;;;;;;;50.05;8.73;;;10.20;99.90;;;;;;5052857;28;19987;-65
2022/10/03 06:51:55;;;;;;;287.60;10.18;;;10.30;99.90;;;;;;5052022;28;20040;-65
2022/10/03 06:54:45;;;;;;;226.50;9.30;;;10.20;99.90;;;;;;5052044;28;20111;-65
2022/10/03 06:57:48;;;;;;;369.77;12.82;;;10.20;99.90;;;;;;5052483;28;20098;-65
2022/10/03 07:00:16;;;;;;;235.30;10.13;;;10.30;99.90;;;;;;5052224;28;20029;-66
2022/10/03 07:02:50;;;;;;;227.00;10.50;;;10.20;99.90;;;;;;5052347;28;20128;-66
2022/10/03 07:05:35;;;;;;;383.50;13.07;;;10.20;99.90;;;;;;5052336;28;20042;-70
2022/10/03 07:08:01;;;;;;;46.60;7.88;;;10.20;99.90;;;;;;5052374;28;20025;-65
2022/10/03 07:10:35;;;;;;;37.92;9.75;;;10.30;99.90;;;;;;5051587;28;20090;-66
2022/10/03 07:13:14;;;;;;;27.50;11.05;;;10.40;99.90;;;;;;5052103;28;20037;-66
2022/10/03 07:16:01;;;;;;;23.40;11.18;;;10.50;99.90;;;;;;5049228;28;20619;-65
2022/10/03 07:18:45;;;;;;;29.17;11.52;;;10.60;99.90;;;;;;5050219;28;20087;-66
2022/10/03 07:21:42;;;;;;;26.27;10.95;;;10.70;99.90;;;;;;5050597;28;20140;-65
2022/10/03 07:25:01;;;;;;;26.08;11.63;;;10.90;99.90;;;;;;5051435;28;20440;-66
2022/10/03 07:27:41;;;;;;;26.98;11.65;;;11.00;99.90;;;;;;5028439;28;20049;-68
2022/10/03 07:30:21;;;;;;;29.33;12.85;;;11.10;99.90;;;;;;5031474;28;20406;-66
2022/10/03 07:33:15;;;;;;;137.82;67.60;;;11.10;99.90;;;;;;5031889;28;20045;-65
2022/10/03 07:39:31;;;;;;;28.58;12.02;;;11.20;99.90;;;;;;5031828;28;20044;-66
2022/10/03 07:42:26;;;;;;;29.77;12.98;;;11.10;99.90;;;;;;5031990;28;20030;-68
2022/10/03 07:45:07;;;;;;;31.40;12.38;;;10.90;99.90;;;;;;5030415;28;20056;-65
2022/10/03 07:47:53;;;;;;;31.55;12.02;;;11.00;99.90;;;;;;5031083;28;20025;-65
2022/10/03 07:50:43;;;;;;;34.00;12.05;;;11.10;99.90;;;;;;5031754;28;20082;-70
2022/10/03 07:53:26;;;;;;;25.15;11.77;;;11.10;99.90;;;;;;5030501;28;20072;-66
2022/10/03 07:56:04;;;;;;;27.45;12.20;;;11.10;99.90;;;;;;5036545;28;20067;-68
2022/10/03 07:58:47;;;;;;;28.58;11.82;;;11.10;99.90;;;;;;5049982;28;20037;-65
2022/10/03 08:01:21;;;;;;;32.05;11.90;;;11.20;99.90;;;;;;5051528;28;20029;-66
2022/10/03 08:04:11;;;;;;;28.10;11.77;;;11.30;99.90;;;;;;5051407;28;20029;-64
2022/10/03 08:06:49;;;;;;;30.02;11.77;;;11.40;99.90;;;;;;5050787;28;20044;-64
2022/10/03 08:10:04;;;;;;;22.88;9.23;;;11.50;99.90;;;;;;5051321;28;20108;-66
2022/10/03 08:12:48;;;;;;;24.67;10.57;;;11.60;99.90;;;;;;5027940;28;20035;-66
2022/10/03 08:15:48;;;;;;;16.77;7.72;;;11.60;99.90;;;;;;5050927;28;20021;-66
2022/10/03 08:18:51;;;;;;;20.92;6.43;;;11.70;99.90;;;;;;5051345;28;20523;-66
2022/10/03 08:21:42;;;;;;;17.75;7.32;;;11.70;99.90;;;;;;5050857;28;20118;-67
2022/10/03 08:24:26;;;;;;;18.08;7.18;;;11.60;99.90;;;;;;5050562;28;20112;-66
2022/10/03 08:27:15;;;;;;;20.25;8.57;;;11.80;99.90;;;;;;5051107;28;20037;-67
2022/10/03 08:30:14;;;;;;;15.82;7.35;;;11.90;99.90;;;;;;5050209;28;20489;-65
2022/10/03 08:32:46;;;;;;;14.30;6.28;;;12.00;99.90;;;;;;5050265;28;20033;-64
2022/10/03 08:35:43;;;;;;;19.65;7.03;;;12.20;99.90;;;;;;5050907;28;20377;-65
2022/10/03 08:38:32;;;;;;;18.45;5.45;;;12.50;99.90;;;;;;5051125;28;20053;-65
2022/10/03 08:41:41;;;;;;;16.33;5.93;;;12.90;99.90;;;;;;5050769;28;20052;-64
2022/10/03 08:44:31;;;;;;;19.35;5.68;;;13.30;99.90;;;;;;5050645;28;20504;-66
2022/10/03 08:47:34;;;;;;;14.18;4.95;;;13.50;99.90;;;;;;5050268;28;20041;-66
2022/10/03 08:50:21;;;;;;;14.10;4.50;;;13.50;99.90;;;;;;5050311;28;20025;-64
2022/10/03 08:53:21;;;;;;;10.70;4.05;;;13.30;99.90;;;;;;5049528;28;20056;-65
2022/10/03 08:56:10;;;;;;;16.05;4.45;;;13.10;99.90;;;;;;5049568;28;20029;-66
2022/10/03 08:59:03;;;;;;;11.27;4.15;;;13.00;99.90;;;;;;5049327;28;20095;-66
2022/10/03 09:01:56;;;;;;;12.13;4.25;;;12.80;99.90;;;;;;5049529;28;20108;-64
2022/10/03 09:04:37;;;;;;;11.30;4.60;;;12.70;99.90;;;;;;5050198;28;20675;-68
2022/10/03 09:07:35;;;;;;;14.68;5.28;;;12.80;99.90;;;;;;5050305;28;20478;-66
2022/10/03 09:10:21;;;;;;;10.38;4.05;;;13.10;99.90;;;;;;5046422;28;20033;-66
2022/10/03 09:12:51;;;;;;;10.68;4.45;;;13.50;99.90;;;;;;5048151;28;20114;-65
2022/10/03 09:15:52;;;;;;;16.10;4.40;;;13.70;99.90;;;;;;5048713;28;20120;-67
2022/10/03 09:18:34;;;;;;;13.02;3.92;;;13.90;99.90;;;;;;5050124;28;20035;-66
2022/10/03 09:21:19;;;;;;;15.45;4.00;;;13.90;99.90;;;;;;5049524;28;20140;-67
2022/10/03 09:23:50;;;;;;;15.38;4.70;;;13.90;99.90;;;;;;5048835;28;20056;-64
2022/10/03 09:26:39;;;;;;;15.02;4.30;;;13.80;99.90;;;;;;5049771;28;20111;-65
2022/10/03 09:29:22;;;;;;;15.75;5.05;;;13.70;99.90;;;;;;5049878;28;20025;-66
2022/10/03 09:32:25;;;;;;;11.43;4.45;;;13.80;99.90;;;;;;5049067;28;20025;-64
2022/10/03 09:35:15;;;;;;;12.82;4.18;;;14.00;99.90;;;;;;5049164;28;20055;-66
2022/10/03 09:38:14;;;;;;;14.38;4.70;;;14.00;99.90;;;;;;5049270;28;20142;-66
2022/10/03 09:40:59;;;;;;;16.48;4.30;;;14.00;99.90;;;;;;5048665;28;20029;-65
2022/10/03 09:43:27;;;;;;;15.68;4.00;;;14.10;99.90;;;;;;5049689;28;20025;-70
2022/10/03 09:46:22;;;;;;;8.68;3.25;;;14.10;99.90;;;;;;5049181;28;20029;-66
2022/10/03 09:49:11;;;;;;;13.23;4.38;;;14.20;99.90;;;;;;5047388;28;20033;-65
2022/10/03 09:52:15;;;;;;;10.80;3.70;;;14.40;99.90;;;;;;5048886;28;20453;-64
2022/10/03 09:55:18;;;;;;;17.05;3.90;;;14.80;99.90;;;;;;5048231;28;20037;-66
2022/10/03 09:57:57;;;;;;;8.32;3.58;;;14.60;99.90;;;;;;5047976;28;20134;-66
2022/10/03 10:00:44;;;;;;;10.32;2.90;;;14.50;99.90;;;;;;5049561;28;20032;-66
2022/10/03 10:03:25;;;;;;;12.70;2.90;;;14.50;99.90;;;;;;5036653;28;20048;-64
2022/10/03 10:06:20;;;;;;;13.48;3.35;;;14.60;99.90;;;;;;5048720;28;20036;-65
2022/10/03 10:08:52;;;;;;;15.52;3.78;;;14.60;99.90;;;;;;5048036;28;20060;-65
2022/10/03 10:11:52;;;;;;;8.57;3.22;;;14.60;99.90;;;;;;5049418;28;20082;-66
2022/10/03 10:14:29;;;;;;;12.07;3.75;;;14.70;99.90;;;;;;5032675;28;20539;-64
2022/10/03 10:17:14;;;;;;;13.30;3.80;;;15.10;99.90;;;;;;5049072;28;20043;-67
2022/10/03 10:20:16;;;;;;;9.40;3.30;;;15.50;99.90;;;;;;5048243;28;20133;-64
2022/10/03 10:23:12;;;;;;;9.63;2.83;;;15.70;99.90;;;;;;5047962;28;20558;-65
2022/10/03 10:26:15;;;;;;;15.38;3.78;;;15.90;99.90;;;;;;5048432;28;20029;-64
2022/10/03 10:29:16;;;;;;;9.50;3.10;;;16.20;99.90;;;;;;5048402;28;20112;-66
2022/10/03 10:32:00;;;;;;;8.48;3.42;;;15.90;99.90;;;;;;5047900;28;20076;-65
2022/10/03 10:34:45;;;;;;;8.98;3.25;;;15.80;99.90;;;;;;5049178;28;20107;-66
2022/10/03 10:37:48;;;;;;;11.27;3.78;;;15.80;99.90;;;;;;5048710;28;20033;-65
2022/10/03 10:40:41;;;;;;;10.35;3.75;;;15.40;99.90;;;;;;5049388;28;20078;-65
2022/10/03 10:43:32;;;;;;;13.57;4.20;;;15.10;99.90;;;;;;5049000;28;20048;-66
2022/10/03 10:46:19;;;;;;;10.80;3.70;;;15.10;99.90;;;;;;5048996;28;20030;-63
2022/10/03 10:49:05;;;;;;;17.40;3.58;;;15.20;99.90;;;;;;5047786;28;20520;-64
2022/10/03 10:51:50;;;;;;;9.05;3.00;;;15.10;99.90;;;;;;5048652;28;20477;-69
2022/10/03 10:54:37;;;;;;;12.88;2.80;;;14.80;99.90;;;;;;5049053;28;20040;-66
2022/10/03 10:57:14;;;;;;;10.85;2.67;;;15.00;99.90;;;;;;5048807;28;20029;-66
2022/10/03 10:59:49;;;;;;;11.85;2.75;;;15.60;99.90;;;;;;5048028;28;20111;-66
2022/10/03 11:02:39;;;;;;;7.18;2.65;;;16.00;99.90;;;;;;5048710;28;20617;-65
2022/10/03 11:05:42;;;;;;;12.38;3.70;;;16.40;99.90;;;;;;5049178;28;20056;-64
2022/10/03 11:08:17;;;;;;;6.55;2.83;;;16.20;99.90;;;;;;5048406;28;20033;-65
2022/10/03 11:11:20;;;;;;;11.70;3.13;;;16.60;99.90;;;;;;5049938;28;20327;-64
2022/10/03 11:14:06;;;;;;;10.60;2.80;;;16.90;99.90;;;;;;5051465;28;20036;-67
2022/10/03 11:17:13;;;;;;;11.90;3.33;;;17.00;99.90;;;;;;5051428;28;20043;-69
2022/10/03 11:19:50;;;;;;;8.98;2.78;;;17.00;99.90;;;;;;5051210;28;20037;-65
2022/10/03 11:22:44;;;;;;;8.48;2.95;;;16.70;99.90;;;;;;5051932;28;20441;-66
2022/10/03 11:25:12;;;;;;;8.45;2.50;;;16.40;99.90;;;;;;5052107;28;20052;-63
2022/10/03 11:28:16;;;;;;;10.65;3.00;;;16.10;99.90;;;;;;5050415;28;20155;-65
2022/10/03 11:30:54;;;;;;;11.10;3.28;;;15.90;99.90;;;;;;5051101;28;20532;-66
2022/10/03 11:33:59;;;;;;;9.18;3.65;;;15.70;99.90;;;;;;5052018;28;20033;-65
2022/10/03 11:36:45;;;;;;;10.05;3.00;;;15.60;99.90;;;;;;5039971;28;20433;-66
2022/10/03 11:39:37;;;;;;;9.10;3.20;;;15.50;99.90;;;;;;5051681;28;20378;-66
2022/10/03 11:42:36;;;;;;;9.52;2.95;;;15.60;99.90;;;;;;5052037;28;20025;-66
2022/10/03 11:45:05;;;;;;;14.75;3.47;;;16.00;99.90;;;;;;5040934;28;20159;-66
2022/10/03 11:48:06;;;;;;;14.05;2.88;;;16.00;99.90;;;;;;5051473;28;20029;-65
2022/10/03 11:50:47;;;;;;;13.20;3.25;;;15.80;99.90;;;;;;5028867;28;20060;-65
2022/10/03 11:53:18;;;;;;;9.98;3.35;;;15.70;99.90;;;;;;5049379;28;20128;-65
2022/10/03 11:55:56;;;;;;;9.63;3.50;;;15.70;99.90;;;;;;5050784;28;20029;-68
2022/10/03 11:58:33;;;;;;;11.25;3.08;;;15.80;99.90;;;;;;5051654;28;20691;-65
2022/10/03 12:01:18;;;;;;;17.88;3.58;;;15.80;99.90;;;;;;5051094;28;20029;-64
2022/10/03 12:04:25;;;;;;;14.85;3.63;;;15.80;99.90;;;;;;5050711;28;20113;-67
2022/10/03 12:10:02;;;;;;;15.45;3.72;;;15.50;99.90;;;;;;5050516;28;20489;-66
2022/10/03 12:12:44;;;;;;;11.38;3.45;;;15.50;99.90;;;;;;5050708;28;20029;-64
2022/10/03 12:15:29;;;;;;;14.45;3.40;;;15.40;99.90;;;;;;5050947;28;20078;-65
2022/10/03 12:18:05;;;;;;;13.00;3.13;;;15.40;99.90;;;;;;5050173;28;20025;-64
2022/10/03 12:21:01;;;;;;;6.22;3.20;;;15.30;99.90;;;;;;5050340;28;20095;-67
2022/10/03 12:23:54;;;;;;;10.38;3.50;;;15.20;99.90;;;;;;5050935;28;20052;-65
2022/10/03 12:26:46;;;;;;;12.05;3.92;;;15.10;99.90;;;;;;5050777;28;20029;-65
2022/10/03 12:29:15;;;;;;;12.45;3.40;;;14.90;99.90;;;;;;5050952;28;20033;-67
2022/10/03 12:32:06;;;;;;;13.88;3.83;;;14.90;99.90;;;;;;5050129;28;20044;-64
2022/10/03 12:34:51;;;;;;;12.57;3.30;;;15.00;99.90;;;;;;5050846;28;20036;-67
2022/10/03 12:37:33;;;;;;;9.68;3.22;;;15.00;99.90;;;;;;5050905;28;20035;-66
2022/10/03 12:40:04;;;;;;;10.82;3.70;;;15.20;99.90;;;;;;5048670;28;20151;-64
2022/10/03 12:42:36;;;;;;;6.68;2.92;;;15.30;99.90;;;;;;5050666;28;20025;-65
2022/10/03 12:45:18;;;;;;;9.85;3.08;;;15.40;99.90;;;;;;5050029;28;20032;-67
2022/10/03 12:47:57;;;;;;;10.32;3.28;;;15.70;99.90;;;;;;5050171;28;20033;-66
2022/10/03 12:50:34;;;;;;;12.52;3.60;;;16.00;99.90;;;;;;5050281;28;20390;-64
2022/10/03 12:53:15;;;;;;;16.67;3.58;;;16.00;99.90;;;;;;5049878;28;20025;-66
2022/10/03 12:55:48;;;;;;;10.88;3.10;;;16.10;99.90;;;;;;5049595;28;20029;-70
2022/10/03 12:58:45;;;;;;;7.32;2.85;;;16.50;99.90;;;;;;5050513;28;20436;-64
2022/10/03 13:01:24;;;;;;;8.82;2.63;;;16.80;99.90;;;;;;5050445;28;20434;-65
2022/10/03 13:04:10;;;;;;;10.20;2.95;;;17.00;99.90;;;;;;5049526;28;20505;-65
2022/10/03 13:07:08;;;;;;;8.80;2.47;;;16.90;99.90;;;;;;5050147;28;20033;-66
2022/10/03 13:09:52;;;;;;;11.63;2.55;;;16.70;99.90;;;;;;5032264;28;20104;-65
2022/10/03 13:12:54;;;;;;;5.85;2.30;;;16.50;99.90;;;;;;5050009;28;20025;-64
2022/10/03 13:15:51;;;;;;;6.90;2.40;;;16.20;99.90;;;;;;5049969;28;20021;-65
2022/10/03 13:18:41;;;;;;;7.68;2.03;;;16.10;99.90;;;;;;5050122;28;20116;-66
2022/10/03 13:21:18;;;;;;;7.43;2.20;;;15.90;99.90;;;;;;5048448;28;20060;-65
2022/10/03 13:23:52;;;;;;;10.45;2.70;;;15.80;99.90;;;;;;5049066;28;20033;-64
2022/10/03 13:26:26;;;;;;;9.07;2.42;;;15.80;99.90;;;;;;5049927;28;20025;-64
2022/10/03 13:29:12;;;;;;;8.13;2.90;;;15.60;99.90;;;;;;5049063;28;20051;-66
2022/10/03 13:32:10;;;;;;;9.70;2.60;;;15.60;99.90;;;;;;5049636;28;20037;-68
2022/10/03 13:38:33;;;;;;;8.00;2.17;;;15.30;99.90;;;;;;5048405;28;20036;-66
2022/10/03 13:41:17;;;;;;;7.43;2.50;;;15.10;99.90;;;;;;5048918;28;20033;-64
2022/10/03 13:43:55;;;;;;;7.57;2.50;;;15.10;99.90;;;;;;5048780;28;20033;-68
2022/10/03 13:46:36;;;;;;;8.27;2.33;;;15.30;99.90;;;;;;5049635;28;20029;-65
2022/10/03 13:49:10;;;;;;;7.45;2.60;;;15.30;99.90;;;;;;5048629;28;20216;-65
2022/10/03 13:51:52;;;;;;;10.75;3.85;;;15.40;99.90;;;;;;5049233;28;20793;-65
2022/10/03 13:54:51;;;;;;;10.95;2.70;;;15.60;99.90;;;;;;5049443;28;20033;-63
2022/10/03 13:57:23;;;;;;;11.75;2.80;;;15.80;99.90;;;;;;5049310;28;20136;-67
2022/10/03 14:00:11;;;;;;;7.40;2.78;;;15.80;99.90;;;;;;5048656;28;20493;-64
2022/10/03 14:03:10;;;;;;;8.20;2.22;;;15.80;99.90;;;;;;5049112;28;20108;-66
2022/10/03 14:06:09;;;;;;;6.22;2.30;;;15.90;99.90;;;;;;5049383;28;20033;-67
2022/10/03 14:09:02;;;;;;;8.30;2.38;;;15.70;99.90;;;;;;5049413;28;20029;-65
2022/10/03 14:11:28;;;;;;;8.88;2.42;;;15.60;99.90;;;;;;5049316;28;20097;-65
2022/10/03 14:14:37;;;;;;;11.15;2.45;;;15.70;99.90;;;;;;5048321;28;20148;-66
2022/10/03 14:17:35;;;;;;;8.02;2.15;;;15.70;99.90;;;;;;5048241;28;20653;-65
2022/10/03 14:20:22;;;;;;;7.40;2.35;;;15.90;99.90;;;;;;5028469;28;20960;-64
2022/10/03 14:22:53;;;;;;;6.03;2.00;;;15.90;99.90;;;;;;5028426;28;20041;-64
2022/10/03 14:25:35;;;;;;;6.32;2.10;;;15.90;99.90;;;;;;5029209;28;20034;-65
2022/10/03 14:28:19;;;;;;;5.43;2.08;;;15.80;99.90;;;;;;5028453;28;20037;-65
2022/10/03 14:31:02;;;;;;;13.25;2.38;;;15.80;99.90;;;;;;5028939;28;20033;-69